Time;durP1;ratioP1;P1;durP2;ratioP2;P2;SDS_P1;SDS_P2;PMS_P1;PMS_P2;Temp;Humidity;BMP_temperature;BMP_pressure;BME280_temperature;BME280_humidity;BME280_pressure;Samples;Min_cycle;Max_cycle;Signal;HPM_P1;HPM_P2
2022/09/26 03:02:04;;;;;;;0.80;0.70;;;19.70;47.60;;;;;;5185213;23;45962;-60
2022/09/26 03:04:49;;;;;;;0.95;0.80;;;19.80;47.70;;;;;;4882180;28;45335;-61
2022/09/26 03:07:37;;;;;;;1.63;0.70;;;19.70;47.60;;;;;;4910319;28;45887;-59
2022/09/26 03:10:03;;;;;;;1.00;0.85;;;19.80;47.60;;;;;;4901506;28;44984;-58
2022/09/26 03:12:29;;;;;;;1.27;0.88;;;19.70;47.60;;;;;;4863628;29;46135;-59
2022/09/26 03:14:55;;;;;;;1.30;0.60;;;19.70;47.60;;;;;;4895079;28;45569;-60
2022/09/26 03:17:20;;;;;;;0.55;0.52;;;19.70;47.50;;;;;;4901444;28;45000;-60
2022/09/26 03:19:52;;;;;;;0.80;0.70;;;19.70;47.50;;;;;;4896544;28;44708;-60
2022/09/26 03:22:18;;;;;;;1.30;0.88;;;19.70;47.60;;;;;;4880667;29;45744;-58
2022/09/26 03:24:43;;;;;;;0.80;0.73;;;19.70;47.60;;;;;;4895741;28;46114;-60
2022/09/26 03:27:10;;;;;;;1.17;0.60;;;19.70;47.60;;;;;;4879218;29;48320;-61
2022/09/26 03:29:37;;;;;;;0.82;0.68;;;19.70;47.60;;;;;;4893084;29;45376;-60
2022/09/26 03:32:04;;;;;;;0.82;0.60;;;19.70;47.60;;;;;;4893535;28;46300;-60
2022/09/26 03:34:29;;;;;;;0.98;0.70;;;19.70;47.60;;;;;;4896549;28;45384;-60
2022/09/26 03:36:55;;;;;;;0.90;0.77;;;19.70;47.60;;;;;;4894357;28;45216;-60
2022/09/26 03:39:20;;;;;;;0.73;0.60;;;19.70;47.60;;;;;;4896226;28;45084;-61
2022/09/26 03:41:46;;;;;;;1.70;0.80;;;19.70;47.60;;;;;;4895648;29;45216;-60
2022/09/26 03:44:12;;;;;;;0.80;0.80;;;19.70;47.60;;;;;;4894483;28;45274;-60
2022/09/26 03:46:38;;;;;;;1.02;0.73;;;19.70;47.60;;;;;;4897970;28;45345;-60
2022/09/26 03:49:03;;;;;;;1.00;0.90;;;19.70;47.60;;;;;;4888227;28;45209;-60
2022/09/26 03:51:29;;;;;;;0.73;0.60;;;19.70;47.60;;;;;;4891873;28;45660;-60
2022/09/26 03:53:54;;;;;;;0.80;0.80;;;19.70;47.60;;;;;;4892735;28;45474;-61
2022/09/26 03:56:20;;;;;;;1.23;1.00;;;19.70;47.70;;;;;;4872691;29;45122;-58
2022/09/26 03:58:46;;;;;;;0.93;0.80;;;19.70;47.60;;;;;;4890494;28;44878;-60
2022/09/26 04:01:13;;;;;;;1.85;0.85;;;19.70;47.70;;;;;;4884434;28;45894;-60
2022/09/26 04:03:39;;;;;;;0.77;0.70;;;19.70;47.60;;;;;;4892047;28;45523;-59
2022/09/26 04:06:09;;;;;;;1.27;0.93;;;19.70;47.60;;;;;;4888735;28;47179;-60
2022/09/26 04:08:39;;;;;;;2.25;0.60;;;19.70;47.50;;;;;;4893342;28;45941;-60
2022/09/26 04:11:12;;;;;;;0.90;0.80;;;19.70;47.60;;;;;;4889345;28;45650;-60
2022/09/26 04:13:37;;;;;;;0.68;0.50;;;19.70;47.60;;;;;;4894052;28;45324;-60
2022/09/26 04:16:04;;;;;;;1.23;0.88;;;19.70;47.60;;;;;;4893421;28;45039;-60
2022/09/26 04:18:30;;;;;;;0.63;0.60;;;19.70;47.50;;;;;;4889785;28;45453;-60
2022/09/26 04:21:00;;;;;;;1.48;0.50;;;19.70;47.60;;;;;;4890832;28;45928;-59
2022/09/26 04:23:30;;;;;;;0.80;0.75;;;19.70;47.60;;;;;;4875483;29;45425;-59
2022/09/26 04:26:04;;;;;;;0.75;0.70;;;19.70;47.60;;;;;;4894769;28;46109;-59
2022/09/26 04:28:29;;;;;;;;;;;19.70;47.60;;;;;;4890948;28;45993;-59
2022/09/26 04:31:02;;;;;;;1.20;0.90;;;19.70;47.60;;;;;;4891098;28;46129;-60
2022/09/26 04:33:29;;;;;;;1.00;0.60;;;19.70;47.60;;;;;;4893106;28;45025;-60
2022/09/26 04:35:58;;;;;;;0.55;0.55;;;19.70;47.60;;;;;;4894126;28;45460;-61
2022/09/26 04:38:25;;;;;;;0.95;0.85;;;19.70;47.60;;;;;;4894565;28;45964;-61
2022/09/26 04:40:51;;;;;;;0.95;0.68;;;19.70;47.60;;;;;;4894182;28;45280;-60
2022/09/26 04:43:16;;;;;;;0.98;0.70;;;19.70;47.60;;;;;;4874943;29;46511;-60
2022/09/26 04:45:42;;;;;;;1.00;0.90;;;19.70;47.60;;;;;;4887426;28;45700;-60
2022/09/26 04:48:09;;;;;;;1.27;0.73;;;19.70;47.60;;;;;;4877237;28;45588;-61
2022/09/26 04:50:34;;;;;;;0.60;0.60;;;19.70;47.80;;;;;;4891741;28;46208;-61
2022/09/26 04:53:00;;;;;;;0.80;0.80;;;19.70;47.60;;;;;;4894962;28;45399;-60
2022/09/26 04:55:26;;;;;;;1.27;0.73;;;19.70;47.60;;;;;;4894890;28;45571;-61
2022/09/26 04:57:51;;;;;;;0.82;0.70;;;19.70;47.60;;;;;;4894481;28;45503;-59
2022/09/26 05:00:17;;;;;;;1.00;0.90;;;19.70;47.60;;;;;;4892651;28;45213;-60
2022/09/26 05:02:46;;;;;;;1.05;0.70;;;19.70;47.60;;;;;;4897684;28;45547;-61
2022/09/26 05:05:11;;;;;;;1.25;0.90;;;19.70;47.60;;;;;;4881755;28;45506;-61
2022/09/26 05:07:43;;;;;;;1.23;0.70;;;19.70;47.70;;;;;;4896694;28;45538;-60
2022/09/26 05:10:09;;;;;;;0.70;0.70;;;19.70;47.60;;;;;;4895524;28;46377;-60
2022/09/26 05:12:38;;;;;;;0.80;0.73;;;19.70;47.60;;;;;;4893574;28;44918;-61
2022/09/26 05:15:08;;;;;;;0.60;0.50;;;19.70;47.60;;;;;;4895404;28;45221;-61
2022/09/26 05:17:36;;;;;;;0.80;0.80;;;19.70;47.60;;;;;;4890457;28;45261;-61
2022/09/26 05:20:07;;;;;;;1.10;0.80;;;19.70;47.60;;;;;;4895190;28;45480;-60
2022/09/26 05:22:32;;;;;;;0.93;0.70;;;19.70;47.60;;;;;;4889448;28;45689;-60
2022/09/26 05:27:43;;;;;;;0.65;0.57;;;19.70;47.60;;;;;;4896733;28;45058;-60
2022/09/26 05:30:11;;;;;;;0.73;0.70;;;19.70;47.60;;;;;;4897891;28;46066;-60
2022/09/26 05:32:36;;;;;;;0.60;0.60;;;19.60;47.60;;;;;;4898844;28;45330;-61
2022/09/26 05:35:04;;;;;;;0.98;0.70;;;19.70;47.70;;;;;;4900867;28;45568;-59
2022/09/26 05:37:30;;;;;;;0.70;0.70;;;19.60;47.60;;;;;;4889107;28;45293;-60
2022/09/26 05:42:39;;;;;;;0.80;0.80;;;19.60;47.60;;;;;;4895449;28;45509;-60
2022/09/26 05:45:05;;;;;;;0.82;0.70;;;19.60;47.70;;;;;;4896818;28;45547;-61
2022/09/26 05:47:38;;;;;;;1.27;0.80;;;19.70;47.70;;;;;;4897116;28;45635;-62
2022/09/26 05:50:08;;;;;;;0.60;0.50;;;19.60;47.60;;;;;;4896448;28;46039;-61
2022/09/26 05:52:34;;;;;;;0.80;0.70;;;19.70;47.60;;;;;;4896996;29;45057;-61
2022/09/26 05:55:00;;;;;;;1.60;0.70;;;19.70;47.60;;;;;;4879343;29;46958;-63
2022/09/26 05:57:25;;;;;;;0.57;0.57;;;19.70;47.70;;;;;;4884551;29;44735;-61
2022/09/26 05:59:51;;;;;;;1.13;0.50;;;19.70;47.60;;;;;;4892371;28;46129;-62
2022/09/26 06:02:16;;;;;;;0.93;0.70;;;19.80;47.60;;;;;;4875843;29;45327;-61
2022/09/26 06:04:42;;;;;;;1.50;0.95;;;19.90;47.50;;;;;;4876262;29;45513;-60
2022/09/26 06:07:08;;;;;;;1.05;0.70;;;20.10;47.80;;;;;;4890842;28;45049;-61
2022/09/26 06:09:34;;;;;;;2.00;0.80;;;20.20;47.00;;;;;;4878793;29;45236;-61
2022/09/26 06:11:59;;;;;;;1.75;0.70;;;20.40;46.80;;;;;;4878197;29;45592;-62
2022/09/26 06:14:25;;;;;;;0.93;0.70;;;20.60;46.60;;;;;;4897019;28;44938;-62
2022/09/26 06:16:51;;;;;;;0.80;0.70;;;20.80;46.40;;;;;;4886058;29;45498;-61
2022/09/26 06:19:16;;;;;;;1.10;0.80;;;20.90;46.20;;;;;;4879075;29;46088;-61
2022/09/26 06:21:43;;;;;;;0.63;0.60;;;21.00;46.10;;;;;;4878340;29;44587;-63
2022/09/26 06:24:09;;;;;;;0.60;0.60;;;21.20;46.00;;;;;;4873733;29;45432;-62
2022/09/26 06:26:34;;;;;;;1.25;0.63;;;21.30;45.80;;;;;;4890265;28;45180;-61
2022/09/26 06:29:00;;;;;;;0.82;0.70;;;21.50;45.70;;;;;;4874715;29;45552;-62
2022/09/26 06:31:26;;;;;;;0.50;0.50;;;21.60;45.60;;;;;;4874045;29;45620;-62
2022/09/26 06:33:54;;;;;;;1.15;0.40;;;21.70;45.50;;;;;;4877391;29;44994;-62
2022/09/26 06:36:21;;;;;;;0.60;0.50;;;21.90;45.50;;;;;;4880261;29;45481;-62
2022/09/26 06:38:46;;;;;;;0.75;0.70;;;21.90;45.20;;;;;;4874612;29;47110;-60
2022/09/26 06:41:13;;;;;;;0.82;0.45;;;22.10;45.20;;;;;;4868648;29;45669;-62
2022/09/26 06:43:39;;;;;;;0.88;0.55;;;22.20;45.10;;;;;;4874365;29;45555;-61
2022/09/26 06:46:08;;;;;;;1.08;0.50;;;22.30;44.90;;;;;;4869527;29;45267;-61
2022/09/26 06:48:34;;;;;;;0.60;0.40;;;22.50;44.80;;;;;;4875029;29;46150;-62
2022/09/26 06:50:59;;;;;;;0.82;0.60;;;22.60;44.80;;;;;;4886363;28;45553;-62
2022/09/26 06:53:25;;;;;;;0.70;0.70;;;22.70;44.60;;;;;;4892852;29;45722;-61
2022/09/26 06:55:51;;;;;;;0.65;0.60;;;22.80;44.50;;;;;;4890126;28;45951;-62
2022/09/26 06:58:16;;;;;;;0.50;0.40;;;22.90;44.40;;;;;;4891970;28;45434;-63
2022/09/26 07:00:42;;;;;;;0.50;0.50;;;23.00;44.50;;;;;;4874255;29;45717;-62
2022/09/26 07:03:08;;;;;;;0.52;0.52;;;23.10;44.30;;;;;;4854080;29;45389;-61
2022/09/26 07:05:33;;;;;;;0.50;0.50;;;23.10;44.20;;;;;;4857377;29;45548;-63
2022/09/26 07:08:00;;;;;;;0.63;0.50;;;23.20;44.10;;;;;;4852242;29;45968;-62
2022/09/26 07:10:29;;;;;;;0.57;0.52;;;23.30;44.00;;;;;;4856342;29;45538;-63
2022/09/26 07:13:04;;;;;;;0.75;0.60;;;23.40;43.90;;;;;;4858690;29;45531;-63
2022/09/26 07:15:32;;;;;;;1.17;0.57;;;23.50;43.60;;;;;;4844865;29;45451;-63
2022/09/26 07:18:01;;;;;;;1.30;0.60;;;23.60;43.80;;;;;;4865610;29;45510;-61
2022/09/26 07:20:27;;;;;;;2.83;0.55;;;23.70;43.70;;;;;;4860503;29;45333;-64
2022/09/26 07:22:52;;;;;;;4.05;0.60;;;23.70;43.60;;;;;;4860028;29;45727;-64
2022/09/26 07:25:18;;;;;;;1.85;0.60;;;23.80;43.50;;;;;;4861333;29;45527;-61
2022/09/26 07:27:44;;;;;;;1.27;0.45;;;23.90;43.50;;;;;;4862767;29;46143;-63
2022/09/26 07:30:12;;;;;;;0.77;0.50;;;24.00;43.30;;;;;;4859934;29;45730;-61
2022/09/26 07:32:38;;;;;;;0.50;0.50;;;24.10;43.30;;;;;;4873289;29;45616;-63
2022/09/26 07:35:04;;;;;;;0.32;0.30;;;24.10;43.20;;;;;;4877308;29;45140;-64
2022/09/26 07:37:30;;;;;;;0.52;0.30;;;24.20;43.10;;;;;;4861905;29;46169;-64
2022/09/26 07:39:56;;;;;;;0.57;0.40;;;24.30;43.00;;;;;;4877157;29;45410;-63
2022/09/26 07:42:21;;;;;;;0.57;0.50;;;24.40;43.00;;;;;;4875978;29;45479;-62
2022/09/26 07:44:47;;;;;;;1.05;0.50;;;24.40;42.90;;;;;;4863569;29;45527;-63
2022/09/26 07:50:13;;;;;;;0.52;0.47;;;24.50;42.80;;;;;;4871923;29;45473;-63
2022/09/26 07:52:40;;;;;;;1.85;0.50;;;24.50;42.80;;;;;;4858120;29;45779;-62
2022/09/26 07:55:07;;;;;;;2.47;0.50;;;24.60;42.70;;;;;;4877582;29;45528;-62
2022/09/26 07:57:34;;;;;;;3.38;0.45;;;24.60;42.60;;;;;;4876650;29;47055;-62
2022/09/26 08:00:11;;;;;;;3.83;0.57;;;24.70;42.70;;;;;;4873375;29;45506;-63
2022/09/26 08:02:38;;;;;;;0.98;0.60;;;24.70;42.60;;;;;;4883397;29;45222;-62
2022/09/26 08:05:05;;;;;;;1.00;0.60;;;24.80;42.60;;;;;;4898281;28;45203;-63
2022/09/26 08:07:31;;;;;;;0.88;0.52;;;24.80;42.50;;;;;;4885460;29;47084;-61
2022/09/26 08:09:57;;;;;;;1.38;0.40;;;24.80;42.50;;;;;;4897199;28;45513;-61
2022/09/26 08:12:23;;;;;;;0.30;0.30;;;24.90;43.10;;;;;;4902078;28;45510;-62
2022/09/26 08:14:50;;;;;;;1.08;0.50;;;24.90;42.40;;;;;;4897641;28;45345;-63
2022/09/26 08:17:16;;;;;;;0.98;0.57;;;24.90;42.40;;;;;;4893685;28;45357;-64
2022/09/26 08:19:41;;;;;;;2.60;0.30;;;25.00;42.40;;;;;;4886478;29;45075;-63
2022/09/26 08:22:07;;;;;;;1.88;0.52;;;25.00;42.30;;;;;;4902050;28;45339;-63
2022/09/26 08:24:33;;;;;;;2.65;0.52;;;25.00;42.20;;;;;;4895057;28;45401;-63
2022/09/26 08:26:59;;;;;;;1.33;0.60;;;25.10;42.20;;;;;;4895469;28;46183;-63
2022/09/26 08:29:25;;;;;;;0.40;0.35;;;25.10;42.20;;;;;;4881900;29;45335;-63
2022/09/26 08:31:50;;;;;;;0.30;0.30;;;25.20;42.20;;;;;;4895371;28;45295;-63
2022/09/26 08:34:16;;;;;;;1.67;0.52;;;25.30;42.20;;;;;;4894029;28;46387;-62
2022/09/26 08:36:42;;;;;;;1.55;0.47;;;25.30;42.00;;;;;;4892310;28;46388;-65
2022/09/26 08:39:08;;;;;;;0.43;0.40;;;25.40;42.00;;;;;;4881050;29;45573;-63
2022/09/26 08:42:08;;;;;;;3.10;0.63;;;25.40;41.90;;;;;;4881030;29;45618;-63
2022/09/26 08:44:52;;;;;;;1.48;0.63;;;25.50;41.40;;;;;;4870108;28;46716;-62
2022/09/26 08:47:34;;;;;;;3.72;0.60;;;25.50;41.80;;;;;;4896739;28;45257;-64
2022/09/26 08:50:10;;;;;;;0.30;0.30;;;25.60;41.60;;;;;;4885565;29;45301;-62
2022/09/26 08:53:00;;;;;;;1.10;0.68;;;25.60;41.60;;;;;;4895591;29;45433;-62
2022/09/26 08:55:29;;;;;;;3.28;0.50;;;25.60;41.30;;;;;;4887234;28;45642;-62
2022/09/26 08:58:08;;;;;;;1.65;0.40;;;25.70;41.70;;;;;;4883449;29;45913;-63
2022/09/26 09:00:36;;;;;;;0.98;0.60;;;25.70;41.70;;;;;;4891382;28;45232;-63
2022/09/26 09:03:15;;;;;;;3.15;0.47;;;25.80;41.70;;;;;;4897165;28;45380;-64
2022/09/26 09:06:09;;;;;;;1.30;0.60;;;25.80;41.50;;;;;;4896055;28;45261;-64
2022/09/26 09:08:42;;;;;;;1.95;0.70;;;25.80;41.20;;;;;;4879209;28;45101;-63
2022/09/26 09:11:36;;;;;;;1.05;0.45;;;25.90;41.70;;;;;;4887619;29;45574;-63
2022/09/26 09:14:02;;;;;;;3.55;0.50;;;25.90;41.20;;;;;;4890894;29;45447;-63
2022/09/26 09:16:43;;;;;;;1.52;0.60;;;25.90;41.50;;;;;;4892605;28;45485;-63
2022/09/26 09:19:17;;;;;;;0.45;0.43;;;26.00;41.40;;;;;;4885063;28;45976;-63
2022/09/26 09:22:21;;;;;;;0.98;0.40;;;26.00;41.50;;;;;;4893977;28;45548;-62
2022/09/26 09:25:00;;;;;;;3.28;0.32;;;26.10;41.30;;;;;;4897110;28;45439;-63
2022/09/26 09:27:50;;;;;;;1.38;0.57;;;26.10;41.40;;;;;;4880292;29;45207;-64
2022/09/26 09:30:19;;;;;;;1.15;0.45;;;26.10;41.20;;;;;;4897834;28;45575;-63
2022/09/26 09:33:02;;;;;;;3.92;0.50;;;26.10;41.40;;;;;;4890853;28;44624;-63
2022/09/26 09:36:01;;;;;;;1.40;0.40;;;26.20;41.40;;;;;;4895803;28;45575;-63
2022/09/26 09:38:28;;;;;;;1.13;0.47;;;26.20;41.00;;;;;;4876236;29;45284;-64
2022/09/26 09:40:57;;;;;;;0.82;0.50;;;26.20;41.40;;;;;;4873864;29;46160;-64
2022/09/26 09:43:28;;;;;;;2.35;0.40;;;26.30;42.00;;;;;;4894476;29;44985;-63
2022/09/26 09:46:02;;;;;;;0.82;0.60;;;26.30;41.30;;;;;;4880792;29;44791;-64
2022/09/26 09:48:27;;;;;;;1.08;0.50;;;26.30;41.20;;;;;;4895928;28;45120;-63
2022/09/26 09:51:00;;;;;;;1.65;0.40;;;26.30;41.30;;;;;;4876072;28;45895;-62
2022/09/26 09:53:44;;;;;;;0.75;0.45;;;26.40;41.30;;;;;;4875963;29;45209;-65
2022/09/26 09:56:33;;;;;;;0.40;0.40;;;26.40;41.00;;;;;;4877561;28;45555;-64
2022/09/26 09:59:25;;;;;;;2.45;0.50;;;26.40;41.30;;;;;;4870299;28;45489;-63
2022/09/26 10:02:14;;;;;;;3.60;0.60;;;26.50;41.00;;;;;;4868192;28;46281;-63
2022/09/26 10:04:48;;;;;;;1.10;0.40;;;26.50;41.20;;;;;;4890452;28;45302;-64
2022/09/26 10:07:15;;;;;;;0.77;0.52;;;26.50;41.20;;;;;;4893535;28;45148;-63
2022/09/26 10:09:41;;;;;;;0.88;0.50;;;26.50;41.30;;;;;;4893191;28;45610;-63
2022/09/26 10:12:18;;;;;;;1.33;0.60;;;26.50;41.30;;;;;;4880198;28;45568;-63
2022/09/26 10:14:57;;;;;;;1.75;0.30;;;26.40;41.10;;;;;;4892021;28;45314;-61
2022/09/26 10:17:23;;;;;;;0.88;0.43;;;26.30;41.20;;;;;;4880914;29;45251;-63
2022/09/26 10:19:48;;;;;;;1.05;0.40;;;26.20;41.40;;;;;;4898216;28;45189;-64
2022/09/26 10:22:23;;;;;;;1.40;0.88;;;26.20;41.50;;;;;;4890580;28;45938;-62
2022/09/26 10:24:48;;;;;;;2.25;0.50;;;26.20;41.70;;;;;;4891631;28;45597;-63
2022/09/26 10:27:40;;;;;;;1.33;0.40;;;26.10;41.70;;;;;;4895619;28;45234;-64
2022/09/26 10:30:30;;;;;;;0.80;0.52;;;26.10;41.80;;;;;;4889486;28;46448;-63
2022/09/26 10:33:00;;;;;;;0.95;0.50;;;26.00;41.90;;;;;;4898466;28;46184;-63
2022/09/26 10:35:44;;;;;;;1.17;0.52;;;25.90;41.90;;;;;;4878548;29;45759;-62
2022/09/26 10:38:21;;;;;;;1.13;0.60;;;25.90;41.90;;;;;;4893034;28;45703;-61
2022/09/26 10:40:53;;;;;;;1.08;0.73;;;25.80;42.10;;;;;;4902199;28;45770;-62
2022/09/26 10:43:33;;;;;;;0.88;0.30;;;25.80;42.20;;;;;;4883838;29;47569;-62
2022/09/26 10:46:01;;;;;;;1.15;0.50;;;25.70;42.10;;;;;;4902000;28;44877;-61
2022/09/26 10:48:47;;;;;;;4.63;0.40;;;25.70;42.30;;;;;;4893248;28;45926;-61
2022/09/26 10:51:23;;;;;;;0.45;0.40;;;25.60;42.20;;;;;;4896092;28;45619;-62
2022/09/26 10:53:51;;;;;;;0.98;0.50;;;25.60;42.30;;;;;;4902043;28;46040;-62
2022/09/26 10:56:26;;;;;;;0.80;0.40;;;25.50;42.40;;;;;;4899141;29;45678;-62
2022/09/26 10:58:56;;;;;;;4.05;0.70;;;25.50;42.40;;;;;;4898981;28;45523;-63
2022/09/26 11:01:25;;;;;;;0.95;0.52;;;25.40;42.40;;;;;;4873478;29;45247;-62
2022/09/26 11:03:50;;;;;;;1.38;0.45;;;25.40;42.50;;;;;;4900940;28;47151;-63
2022/09/26 11:06:23;;;;;;;1.33;0.52;;;25.40;42.50;;;;;;4899964;28;45834;-62
2022/09/26 11:08:50;;;;;;;1.38;0.63;;;25.30;42.50;;;;;;4898664;28;45435;-63
2022/09/26 11:11:16;;;;;;;1.33;0.40;;;25.30;42.60;;;;;;4875431;29;45246;-64
2022/09/26 11:14:07;;;;;;;0.65;0.43;;;25.30;42.60;;;;;;4900650;28;44859;-62
2022/09/26 11:16:49;;;;;;;3.97;0.80;;;25.30;42.60;;;;;;4896141;28;44670;-61
2022/09/26 11:19:48;;;;;;;0.60;0.40;;;25.20;42.50;;;;;;4897520;28;45512;-62
2022/09/26 11:22:18;;;;;;;;;;;25.20;42.50;;;;;;4901786;28;45442;-58
2022/09/26 11:25:03;;;;;;;1.60;0.50;;;25.10;42.60;;;;;;4907323;28;46247;-60
2022/09/26 11:27:33;;;;;;;0.75;0.40;;;25.10;42.80;;;;;;4905965;28;45237;-58
2022/09/26 11:30:18;;;;;;;1.13;0.57;;;25.00;42.80;;;;;;4897592;28;45256;-61
2022/09/26 11:32:45;;;;;;;1.73;0.60;;;25.00;42.80;;;;;;4903317;28;45432;-58
2022/09/26 11:35:23;;;;;;;0.68;0.43;;;25.00;42.80;;;;;;4906167;28;45187;-61
2022/09/26 11:38:07;;;;;;;1.58;0.40;;;25.00;42.90;;;;;;4901282;28;44986;-60
2022/09/26 11:40:44;;;;;;;1.27;0.40;;;25.00;42.90;;;;;;4900826;28;45459;-58
2022/09/26 11:43:25;;;;;;;0.82;0.50;;;24.90;43.00;;;;;;4902930;28;45364;-57
2022/09/26 11:46:13;;;;;;;0.85;0.50;;;24.80;43.00;;;;;;4897274;29;47245;-56
2022/09/26 11:48:59;;;;;;;1.00;0.50;;;24.80;43.00;;;;;;4901585;29;45208;-58
2022/09/26 11:51:54;;;;;;;1.55;0.47;;;24.80;43.20;;;;;;4906339;28;45259;-57
2022/09/26 11:54:58;;;;;;;0.88;0.50;;;24.80;43.20;;;;;;4902339;28;45514;-57
2022/09/26 11:57:42;;;;;;;0.55;0.50;;;24.80;43.30;;;;;;4830072;29;45911;-57
2022/09/26 12:00:26;;;;;;;2.15;0.70;;;24.80;43.40;;;;;;4895910;28;45275;-58
2022/09/26 12:03:00;;;;;;;;;;;24.70;43.30;;;;;;4899142;28;45385;-56
2022/09/26 12:05:44;;;;;;;0.30;0.30;;;24.70;43.50;;;;;;4882123;29;45223;-58
2022/09/26 12:08:36;;;;;;;0.57;0.30;;;24.70;43.50;;;;;;4897530;28;45620;-61
2022/09/26 12:11:15;;;;;;;0.60;0.50;;;24.70;43.50;;;;;;4891441;28;45265;-60
2022/09/26 12:13:48;;;;;;;0.75;0.30;;;24.60;43.50;;;;;;4899494;28;45201;-57
2022/09/26 12:16:14;;;;;;;2.10;0.50;;;24.70;43.60;;;;;;4894080;28;45030;-59
2022/09/26 12:19:04;;;;;;;1.88;0.50;;;24.60;43.60;;;;;;4897507;28;46461;-59
2022/09/26 12:24:45;;;;;;;1.85;0.50;;;24.50;43.70;;;;;;4896463;28;45466;-61
2022/09/26 12:27:31;;;;;;;1.00;0.30;;;24.60;43.70;;;;;;4898603;28;44763;-62
2022/09/26 12:30:20;;;;;;;1.88;0.38;;;24.50;43.70;;;;;;4881926;28;48286;-62
2022/09/26 12:33:09;;;;;;;1.73;0.43;;;24.50;43.80;;;;;;4897693;28;45250;-58
2022/09/26 12:35:56;;;;;;;2.00;0.60;;;24.50;43.80;;;;;;4893061;28;45314;-60
2022/09/26 12:38:41;;;;;;;1.05;0.40;;;24.40;43.80;;;;;;4896368;28;45092;-61
2022/09/26 12:41:29;;;;;;;0.63;0.47;;;24.40;43.80;;;;;;4880491;28;45312;-57
2022/09/26 12:44:10;;;;;;;1.70;0.40;;;24.40;43.80;;;;;;4884606;29;45193;-59
2022/09/26 12:46:47;;;;;;;2.05;0.40;;;24.40;43.90;;;;;;4895172;28;44687;-59
2022/09/26 12:49:42;;;;;;;2.50;0.50;;;24.40;43.90;;;;;;4879651;29;45652;-60
2022/09/26 12:52:34;;;;;;;1.45;0.50;;;24.40;44.00;;;;;;4896027;28;46176;-60
2022/09/26 12:55:56;;;;;;;1.98;0.40;;;24.40;44.10;;;;;;4893558;28;45440;-58
2022/09/26 12:58:47;;;;;;;1.42;0.35;;;24.40;44.10;;;;;;4860499;29;45538;-60
2022/09/26 13:01:42;;;;;;;4.68;0.47;;;24.40;44.20;;;;;;4856756;29;45397;-60
2022/09/26 13:04:13;;;;;;;0.57;0.45;;;24.40;44.10;;;;;;4883070;29;47119;-59
2022/09/26 13:06:55;;;;;;;0.45;0.38;;;24.30;44.10;;;;;;4896473;29;44965;-59
2022/09/26 13:09:43;;;;;;;4.07;0.60;;;24.30;44.20;;;;;;4891924;28;45193;-59
2022/09/26 13:12:39;;;;;;;2.65;0.40;;;24.30;44.30;;;;;;4894413;28;45420;-60
2022/09/26 13:15:10;;;;;;;1.65;0.52;;;24.30;44.30;;;;;;4898101;28;45586;-60
2022/09/26 13:17:40;;;;;;;0.40;0.40;;;24.30;44.30;;;;;;4896881;29;45466;-56
2022/09/26 13:20:32;;;;;;;0.50;0.50;;;24.20;44.20;;;;;;4881248;29;44714;-60
2022/09/26 13:23:18;;;;;;;0.93;0.60;;;24.20;44.30;;;;;;4883269;28;44924;-60
2022/09/26 13:25:49;;;;;;;1.38;0.50;;;24.20;44.30;;;;;;4896397;28;45381;-57
2022/09/26 13:28:28;;;;;;;1.65;0.50;;;24.20;44.30;;;;;;4891782;28;45127;-60
2022/09/26 13:30:56;;;;;;;0.45;0.45;;;24.20;44.40;;;;;;4896342;28;45176;-60
2022/09/26 13:33:43;;;;;;;2.28;0.43;;;24.20;44.40;;;;;;4881078;29;45129;-59
2022/09/26 13:36:09;;;;;;;2.08;0.47;;;24.20;44.50;;;;;;4892051;28;45489;-59
2022/09/26 13:38:47;;;;;;;0.40;0.40;;;24.10;44.50;;;;;;4895096;28;44628;-56
2022/09/26 13:41:36;;;;;;;1.75;0.50;;;24.10;44.50;;;;;;4892613;28;45176;-57
2022/09/26 13:44:17;;;;;;;0.82;0.50;;;24.10;44.70;;;;;;4901105;28;45531;-57
2022/09/26 13:47:04;;;;;;;1.10;0.50;;;24.10;44.70;;;;;;4897576;28;45951;-56
2022/09/26 13:49:48;;;;;;;1.85;0.60;;;24.10;44.80;;;;;;4897227;29;44629;-62
2022/09/26 13:52:39;;;;;;;0.30;0.30;;;24.10;44.70;;;;;;4896530;28;45557;-62
2022/09/26 13:55:18;;;;;;;1.65;0.60;;;24.10;44.80;;;;;;4882635;28;44908;-62
2022/09/26 13:57:48;;;;;;;1.17;0.55;;;24.10;44.80;;;;;;4889300;29;45311;-59
2022/09/26 14:00:20;;;;;;;0.40;0.30;;;24.00;44.70;;;;;;4893250;28;45512;-61
2022/09/26 14:03:12;;;;;;;2.58;0.45;;;24.00;44.70;;;;;;4903378;28;45582;-58
2022/09/26 14:05:41;;;;;;;1.85;0.55;;;24.00;44.90;;;;;;4897912;28;44739;-57
2022/09/26 14:11:17;;;;;;;0.65;0.40;;;24.00;45.00;;;;;;4895792;29;45378;-58
2022/09/26 14:13:43;;;;;;;1.23;0.60;;;24.00;44.90;;;;;;4893436;28;45789;-59
2022/09/26 14:16:27;;;;;;;0.70;0.50;;;24.00;44.90;;;;;;4897376;28;45027;-60
2022/09/26 14:19:02;;;;;;;1.70;0.50;;;24.00;45.00;;;;;;4894644;28;46220;-58
2022/09/26 14:21:47;;;;;;;1.10;0.40;;;23.90;44.90;;;;;;4893000;29;45382;-56
2022/09/26 14:24:40;;;;;;;0.82;0.50;;;23.90;44.90;;;;;;4900224;28;45416;-59
2022/09/26 14:27:08;;;;;;;0.77;0.47;;;23.90;45.00;;;;;;4900982;28;45235;-56
2022/09/26 14:29:37;;;;;;;0.50;0.50;;;23.90;45.00;;;;;;4903934;28;45123;-60
2022/09/26 14:32:07;;;;;;;3.45;0.70;;;23.90;45.00;;;;;;4899692;28;46843;-58
2022/09/26 14:34:46;;;;;;;1.83;0.47;;;23.90;45.00;;;;;;4889405;28;45556;-58
2022/09/26 14:37:23;;;;;;;0.52;0.40;;;23.90;45.00;;;;;;4900268;28;45451;-57
2022/09/26 14:39:58;;;;;;;2.55;0.47;;;23.90;45.00;;;;;;4894536;28;45611;-63
2022/09/26 14:42:25;;;;;;;0.40;0.40;;;23.90;45.10;;;;;;4902908;28;45270;-56
2022/09/26 14:44:58;;;;;;;0.50;0.50;;;23.90;45.00;;;;;;4900637;28;45652;-60
2022/09/26 14:47:29;;;;;;;0.50;0.50;;;23.80;45.10;;;;;;4887709;29;45612;-58
2022/09/26 14:50:02;;;;;;;0.98;0.50;;;23.80;45.10;;;;;;4898363;28;46489;-59
2022/09/26 14:52:28;;;;;;;0.30;0.30;;;23.80;45.10;;;;;;4900846;28;44686;-59
2022/09/26 14:54:57;;;;;;;0.60;0.40;;;23.80;45.20;;;;;;4903238;28;44936;-60
2022/09/26 14:57:25;;;;;;;0.70;0.32;;;23.80;45.20;;;;;;4899331;28;45699;-60
2022/09/26 14:59:51;;;;;;;0.73;0.40;;;23.80;45.20;;;;;;4899025;28;46152;-61
2022/09/26 15:02:24;;;;;;;1.13;0.70;;;23.70;45.10;;;;;;4885865;28;45196;-60
2022/09/26 15:05:17;;;;;;;0.57;0.40;;;23.70;45.20;;;;;;4887945;29;45196;-62
2022/09/26 15:07:45;;;;;;;0.50;0.40;;;23.70;45.20;;;;;;4875917;28;45235;-58
2022/09/26 15:10:10;;;;;;;0.60;0.43;;;23.70;45.20;;;;;;4898623;28;45522;-60
2022/09/26 15:12:42;;;;;;;2.10;0.40;;;23.70;45.20;;;;;;4898544;28;45307;-58
2022/09/26 15:15:21;;;;;;;0.80;0.50;;;23.60;45.20;;;;;;4906194;28;45353;-59
2022/09/26 15:17:53;;;;;;;0.45;0.40;;;23.60;45.20;;;;;;4901681;28;45426;-57
2022/09/26 15:20:19;;;;;;;0.85;0.50;;;23.60;45.30;;;;;;4899391;28;46980;-60
2022/09/26 15:22:44;;;;;;;0.50;0.50;;;23.60;45.30;;;;;;4902092;28;45602;-59
2022/09/26 15:25:29;;;;;;;1.10;0.50;;;23.50;45.30;;;;;;4899758;28;45327;-61
2022/09/26 15:27:55;;;;;;;1.38;0.50;;;23.50;45.30;;;;;;4884365;28;45199;-58
2022/09/26 15:30:40;;;;;;;1.02;0.55;;;23.50;45.30;;;;;;4883650;29;45877;-60
2022/09/26 15:33:10;;;;;;;1.08;0.80;;;23.50;45.40;;;;;;4897393;28;45164;-57
2022/09/26 15:35:36;;;;;;;1.45;0.65;;;23.50;45.30;;;;;;4901028;28;45424;-57
2022/09/26 15:38:08;;;;;;;0.60;0.43;;;23.40;45.30;;;;;;4901949;28;45505;-61
2022/09/26 15:40:33;;;;;;;0.90;0.57;;;23.40;45.40;;;;;;4878579;29;47289;-60
2022/09/26 15:43:08;;;;;;;2.22;0.35;;;23.40;45.40;;;;;;4897144;28;45039;-56
2022/09/26 15:45:46;;;;;;;0.63;0.60;;;23.40;45.40;;;;;;4898698;28;45172;-62
2022/09/26 15:48:24;;;;;;;0.32;0.30;;;23.30;45.50;;;;;;4889775;28;45810;-59
2022/09/26 15:51:16;;;;;;;1.48;0.50;;;23.30;45.40;;;;;;4896125;28;46079;-65
2022/09/26 15:53:46;;;;;;;1.45;0.40;;;23.30;45.50;;;;;;4895190;28;45597;-56
2022/09/26 15:56:22;;;;;;;0.40;0.40;;;23.30;45.60;;;;;;4898683;28;45892;-61
2022/09/26 15:58:50;;;;;;;0.50;0.50;;;23.30;45.60;;;;;;4881078;29;44856;-61
2022/09/26 16:01:17;;;;;;;0.50;0.50;;;23.20;45.50;;;;;;4893526;28;45580;-61
2022/09/26 16:03:54;;;;;;;0.68;0.40;;;23.20;45.50;;;;;;4895339;28;45656;-61
2022/09/26 16:06:25;;;;;;;1.73;0.68;;;23.20;45.60;;;;;;4897557;28;45075;-60
2022/09/26 16:08:54;;;;;;;2.28;0.50;;;23.20;45.60;;;;;;4895474;28;45433;-59
2022/09/26 16:11:20;;;;;;;0.98;0.50;;;23.20;45.60;;;;;;4893555;28;46384;-60
2022/09/26 16:13:47;;;;;;;0.73;0.57;;;23.10;45.60;;;;;;4880782;29;45813;-58
2022/09/26 16:16:17;;;;;;;0.85;0.50;;;23.10;45.60;;;;;;4895968;28;45034;-63
2022/09/26 16:18:57;;;;;;;0.88;0.50;;;23.10;45.60;;;;;;4895081;28;45701;-61
2022/09/26 16:21:25;;;;;;;1.83;0.68;;;23.10;45.70;;;;;;4896164;28;46170;-58
2022/09/26 16:23:52;;;;;;;0.68;0.43;;;23.10;45.70;;;;;;4896674;28;45583;-63
2022/09/26 16:26:20;;;;;;;1.83;0.60;;;23.10;45.70;;;;;;4892677;28;45896;-60
2022/09/26 16:28:51;;;;;;;0.50;0.50;;;23.10;45.70;;;;;;4890997;28;45661;-60
2022/09/26 16:31:38;;;;;;;0.30;0.30;;;23.00;45.60;;;;;;4892175;28;45213;-60
2022/09/26 16:34:18;;;;;;;0.50;0.35;;;23.00;45.70;;;;;;4892424;28;45611;-61